sensor_id;sensor_type;location;lat;lon;timestamp;temperature;humidity
8248;DHT22;4164;49.844;8.830;2022-12-18T00:00:59;-8.10;99.90
8248;DHT22;4164;49.844;8.830;2022-12-18T00:03:25;-8.10;99.90
8248;DHT22;4164;49.844;8.830;2022-12-18T00:05:52;-8.00;99.90
8248;DHT22;4164;49.844;8.830;2022-12-18T00:08:18;-8.00;99.90
8248;DHT22;4164;49.844;8.830;2022-12-18T00:10:46;-8.00;99.90
8248;DHT22;4164;49.844;8.830;2022-12-18T00:13:12;-8.10;99.90
8248;DHT22;4164;49.844;8.830;2022-12-18T00:15:39;-7.90;99.90
8248;DHT22;4164;49.844;8.830;2022-12-18T00:18:05;-8.00;99.90
8248;DHT22;4164;49.844;8.830;2022-12-18T00:20:31;-8.10;99.90
8248;DHT22;4164;49.844;8.830;2022-12-18T00:22:56;-8.00;99.90
8248;DHT22;4164;49.844;8.830;2022-12-18T00:25:22;-8.30;99.90
8248;DHT22;4164;49.844;8.830;2022-12-18T00:27:48;-8.30;99.90
8248;DHT22;4164;49.844;8.830;2022-12-18T00:30:14;-8.40;99.90
8248;DHT22;4164;49.844;8.830;2022-12-18T00:32:39;-8.40;99.90
8248;DHT22;4164;49.844;8.830;2022-12-18T00:35:06;-8.30;99.90
8248;DHT22;4164;49.844;8.830;2022-12-18T00:37:33;-8.30;99.90
8248;DHT22;4164;49.844;8.830;2022-12-18T00:39:59;-7.90;99.90
8248;DHT22;4164;49.844;8.830;2022-12-18T00:42:24;-8.40;99.90
8248;DHT22;4164;49.844;8.830;2022-12-18T00:45:09;-8.50;99.90
8248;DHT22;4164;49.844;8.830;2022-12-18T00:47:35;-8.30;99.90
8248;DHT22;4164;49.844;8.830;2022-12-18T00:50:00;-8.20;99.90
8248;DHT22;4164;49.844;8.830;2022-12-18T00:52:26;-8.10;99.90
8248;DHT22;4164;49.844;8.830;2022-12-18T00:54:52;-8.10;99.90
8248;DHT22;4164;49.844;8.830;2022-12-18T00:57:17;-8.20;99.90
8248;DHT22;4164;49.844;8.830;2022-12-18T00:59:43;-8.40;99.90
8248;DHT22;4164;49.844;8.830;2022-12-18T01:02:08;-8.60;99.90
8248;DHT22;4164;49.844;8.830;2022-12-18T01:04:34;-8.60;99.90
8248;DHT22;4164;49.844;8.830;2022-12-18T01:06:59;-8.70;99.90
8248;DHT22;4164;49.844;8.830;2022-12-18T01:09:25;-8.50;99.90
8248;DHT22;4164;49.844;8.830;2022-12-18T01:11:51;-8.40;99.90
8248;DHT22;4164;49.844;8.830;2022-12-18T01:14:17;-8.30;99.90
8248;DHT22;4164;49.844;8.830;2022-12-18T01:16:42;-8.30;99.90
8248;DHT22;4164;49.844;8.830;2022-12-18T01:19:08;-8.50;99.90
8248;DHT22;4164;49.844;8.830;2022-12-18T01:21:33;-8.60;99.90
8248;DHT22;4164;49.844;8.830;2022-12-18T01:23:59;-8.80;99.90
8248;DHT22;4164;49.844;8.830;2022-12-18T01:26:26;-9.00;99.90
8248;DHT22;4164;49.844;8.830;2022-12-18T01:28:54;-9.10;99.90
8248;DHT22;4164;49.844;8.830;2022-12-18T01:31:28;-9.20;99.90
8248;DHT22;4164;49.844;8.830;2022-12-18T01:33:55;-9.10;99.90
8248;DHT22;4164;49.844;8.830;2022-12-18T01:36:24;-9.20;99.90
8248;DHT22;4164;49.844;8.830;2022-12-18T01:38:50;-9.20;99.90
8248;DHT22;4164;49.844;8.830;2022-12-18T01:41:18;-9.30;99.90
8248;DHT22;4164;49.844;8.830;2022-12-18T01:43:47;-9.20;99.90
8248;DHT22;4164;49.844;8.830;2022-12-18T01:46:13;-9.10;99.90
8248;DHT22;4164;49.844;8.830;2022-12-18T01:48:39;-9.10;99.90
8248;DHT22;4164;49.844;8.830;2022-12-18T01:51:08;-9.30;99.90
8248;DHT22;4164;49.844;8.830;2022-12-18T01:53:35;-9.00;99.90
8248;DHT22;4164;49.844;8.830;2022-12-18T01:56:01;-9.10;99.90
8248;DHT22;4164;49.844;8.830;2022-12-18T01:58:37;-9.00;99.90
8248;DHT22;4164;49.844;8.830;2022-12-18T02:01:05;-9.00;99.90
8248;DHT22;4164;49.844;8.830;2022-12-18T02:03:30;-8.90;99.90
8248;DHT22;4164;49.844;8.830;2022-12-18T02:06:16;-9.00;99.90
8248;DHT22;4164;49.844;8.830;2022-12-18T02:14:34;-8.90;99.90
8248;DHT22;4164;49.844;8.830;2022-12-18T02:17:10;-8.90;99.90
8248;DHT22;4164;49.844;8.830;2022-12-18T02:19:58;-9.10;99.90
8248;DHT22;4164;49.844;8.830;2022-12-18T02:27:49;-9.20;99.90
8248;DHT22;4164;49.844;8.830;2022-12-18T02:30:16;-9.20;99.90
8248;DHT22;4164;49.844;8.830;2022-12-18T02:32:47;-9.10;99.90
8248;DHT22;4164;49.844;8.830;2022-12-18T02:35:23;-9.20;99.90
8248;DHT22;4164;49.844;8.830;2022-12-18T02:37:50;-9.20;99.90
8248;DHT22;4164;49.844;8.830;2022-12-18T02:40:17;-9.20;99.90
8248;DHT22;4164;49.844;8.830;2022-12-18T02:42:44;-9.20;99.90
8248;DHT22;4164;49.844;8.830;2022-12-18T02:45:10;-9.30;99.90
8248;DHT22;4164;49.844;8.830;2022-12-18T02:47:41;-9.20;99.90
8248;DHT22;4164;49.844;8.830;2022-12-18T02:50:34;-9.30;99.90
8248;DHT22;4164;49.844;8.830;2022-12-18T02:53:10;-9.50;99.90
8248;DHT22;4164;49.844;8.830;2022-12-18T02:58:20;-9.70;99.90
8248;DHT22;4164;49.844;8.830;2022-12-18T03:01:11;-9.60;99.90
8248;DHT22;4164;49.844;8.830;2022-12-18T03:03:43;-9.50;99.90
8248;DHT22;4164;49.844;8.830;2022-12-18T03:06:23;-9.50;99.90
8248;DHT22;4164;49.844;8.830;2022-12-18T03:08:56;-9.60;99.90
8248;DHT22;4164;49.844;8.830;2022-12-18T03:11:22;-9.60;99.90
8248;DHT22;4164;49.844;8.830;2022-12-18T03:14:10;-9.50;99.90
8248;DHT22;4164;49.844;8.830;2022-12-18T03:16:39;-9.60;99.90
8248;DHT22;4164;49.844;8.830;2022-12-18T03:19:13;-9.60;99.90
8248;DHT22;4164;49.844;8.830;2022-12-18T03:21:43;-9.50;99.90
8248;DHT22;4164;49.844;8.830;2022-12-18T03:24:11;-9.50;99.90
8248;DHT22;4164;49.844;8.830;2022-12-18T03:26:42;-9.50;99.90
8248;DHT22;4164;49.844;8.830;2022-12-18T03:29:22;-9.70;99.90
8248;DHT22;4164;49.844;8.830;2022-12-18T03:31:54;-9.60;99.90
8248;DHT22;4164;49.844;8.830;2022-12-18T03:34:30;-9.60;99.90
8248;DHT22;4164;49.844;8.830;2022-12-18T03:36:57;-9.70;99.90
8248;DHT22;4164;49.844;8.830;2022-12-18T03:39:24;-9.70;99.90
8248;DHT22;4164;49.844;8.830;2022-12-18T03:42:05;-9.70;99.90
8248;DHT22;4164;49.844;8.830;2022-12-18T03:44:54;-9.80;99.90
8248;DHT22;4164;49.844;8.830;2022-12-18T03:47:29;-9.70;99.90
8248;DHT22;4164;49.844;8.830;2022-12-18T03:52:54;-9.70;99.90
8248;DHT22;4164;49.844;8.830;2022-12-18T03:55:23;-9.70;99.90
8248;DHT22;4164;49.844;8.830;2022-12-18T03:57:52;-9.70;99.90
8248;DHT22;4164;49.844;8.830;2022-12-18T04:00:18;-9.60;99.90
8248;DHT22;4164;49.844;8.830;2022-12-18T04:02:53;-9.70;99.90
8248;DHT22;4164;49.844;8.830;2022-12-18T04:05:20;-9.70;99.90
8248;DHT22;4164;49.844;8.830;2022-12-18T04:07:48;-9.70;99.90
8248;DHT22;4164;49.844;8.830;2022-12-18T04:10:15;-9.70;99.90
8248;DHT22;4164;49.844;8.830;2022-12-18T04:12:42;-9.70;99.90
8248;DHT22;4164;49.844;8.830;2022-12-18T04:15:08;-9.70;99.90
8248;DHT22;4164;49.844;8.830;2022-12-18T04:17:34;-9.80;99.90
8248;DHT22;4164;49.844;8.830;2022-12-18T04:19:59;-9.70;99.90
8248;DHT22;4164;49.844;8.830;2022-12-18T04:22:25;-9.80;99.90
8248;DHT22;4164;49.844;8.830;2022-12-18T04:24:50;-9.70;99.90
8248;DHT22;4164;49.844;8.830;2022-12-18T04:27:16;-9.70;99.90
8248;DHT22;4164;49.844;8.830;2022-12-18T04:29:42;-9.70;99.90
8248;DHT22;4164;49.844;8.830;2022-12-18T04:32:08;-9.70;99.90
8248;DHT22;4164;49.844;8.830;2022-12-18T04:34:33;-9.90;99.90
8248;DHT22;4164;49.844;8.830;2022-12-18T04:36:59;-10.10;99.90
8248;DHT22;4164;49.844;8.830;2022-12-18T04:39:24;-10.10;99.90
8248;DHT22;4164;49.844;8.830;2022-12-18T04:41:50;-10.00;99.90
8248;DHT22;4164;49.844;8.830;2022-12-18T04:44:15;-10.00;99.90
8248;DHT22;4164;49.844;8.830;2022-12-18T04:46:41;-10.10;99.90
8248;DHT22;4164;49.844;8.830;2022-12-18T04:49:06;-10.10;99.90
8248;DHT22;4164;49.844;8.830;2022-12-18T04:51:32;-10.20;99.90
8248;DHT22;4164;49.844;8.830;2022-12-18T04:53:58;-10.20;99.90
8248;DHT22;4164;49.844;8.830;2022-12-18T04:56:23;-10.20;99.90
8248;DHT22;4164;49.844;8.830;2022-12-18T04:58:49;-10.10;99.90
8248;DHT22;4164;49.844;8.830;2022-12-18T05:01:16;-10.10;99.90
8248;DHT22;4164;49.844;8.830;2022-12-18T05:03:42;-10.00;99.90
8248;DHT22;4164;49.844;8.830;2022-12-18T05:06:08;-9.90;99.90
8248;DHT22;4164;49.844;8.830;2022-12-18T05:08:37;-10.00;99.90
8248;DHT22;4164;49.844;8.830;2022-12-18T05:11:05;-10.00;99.90
8248;DHT22;4164;49.844;8.830;2022-12-18T05:13:33;-10.00;99.90
8248;DHT22;4164;49.844;8.830;2022-12-18T05:15:59;-10.10;99.90
8248;DHT22;4164;49.844;8.830;2022-12-18T05:18:25;-10.00;99.90
8248;DHT22;4164;49.844;8.830;2022-12-18T05:20:52;-10.10;99.90
8248;DHT22;4164;49.844;8.830;2022-12-18T05:23:18;-10.10;99.90
8248;DHT22;4164;49.844;8.830;2022-12-18T05:26:02;-10.20;99.90
8248;DHT22;4164;49.844;8.830;2022-12-18T05:28:30;-10.30;99.90
8248;DHT22;4164;49.844;8.830;2022-12-18T05:30:59;-10.30;99.90
8248;DHT22;4164;49.844;8.830;2022-12-18T05:33:27;-10.40;99.90
8248;DHT22;4164;49.844;8.830;2022-12-18T05:35:56;-10.40;99.90
8248;DHT22;4164;49.844;8.830;2022-12-18T05:38:23;-10.60;99.90
8248;DHT22;4164;49.844;8.830;2022-12-18T05:40:49;-10.50;99.90
8248;DHT22;4164;49.844;8.830;2022-12-18T05:43:15;-10.50;99.90
8248;DHT22;4164;49.844;8.830;2022-12-18T05:45:41;-10.50;99.90
8248;DHT22;4164;49.844;8.830;2022-12-18T05:48:08;-10.30;99.90
8248;DHT22;4164;49.844;8.830;2022-12-18T05:50:35;-10.20;99.90
8248;DHT22;4164;49.844;8.830;2022-12-18T05:53:02;-10.10;99.90
8248;DHT22;4164;49.844;8.830;2022-12-18T05:55:27;-10.10;99.90
8248;DHT22;4164;49.844;8.830;2022-12-18T05:57:53;-10.10;99.90
8248;DHT22;4164;49.844;8.830;2022-12-18T06:00:18;-10.00;99.90
8248;DHT22;4164;49.844;8.830;2022-12-18T06:02:47;-10.00;99.90
8248;DHT22;4164;49.844;8.830;2022-12-18T06:05:12;-10.30;99.90
8248;DHT22;4164;49.844;8.830;2022-12-18T06:07:38;-10.10;99.90
8248;DHT22;4164;49.844;8.830;2022-12-18T06:10:04;-10.10;99.90
8248;DHT22;4164;49.844;8.830;2022-12-18T06:12:29;-10.10;99.90
8248;DHT22;4164;49.844;8.830;2022-12-18T06:14:55;-10.10;99.90
8248;DHT22;4164;49.844;8.830;2022-12-18T06:17:20;-10.10;99.90
8248;DHT22;4164;49.844;8.830;2022-12-18T06:19:46;-10.20;99.90
8248;DHT22;4164;49.844;8.830;2022-12-18T06:22:11;-10.20;99.90
8248;DHT22;4164;49.844;8.830;2022-12-18T06:24:37;-10.20;99.90
8248;DHT22;4164;49.844;8.830;2022-12-18T06:27:02;-10.20;99.90
8248;DHT22;4164;49.844;8.830;2022-12-18T06:29:28;-10.10;99.90
8248;DHT22;4164;49.844;8.830;2022-12-18T06:31:53;-10.10;99.90
8248;DHT22;4164;49.844;8.830;2022-12-18T06:34:19;-10.20;99.90
8248;DHT22;4164;49.844;8.830;2022-12-18T06:36:44;-10.10;99.90
8248;DHT22;4164;49.844;8.830;2022-12-18T06:39:10;-10.20;99.90
8248;DHT22;4164;49.844;8.830;2022-12-18T06:41:36;-10.30;99.90
8248;DHT22;4164;49.844;8.830;2022-12-18T06:44:01;-10.30;99.90
8248;DHT22;4164;49.844;8.830;2022-12-18T06:46:27;-10.40;99.90
8248;DHT22;4164;49.844;8.830;2022-12-18T06:48:52;-10.40;99.90
8248;DHT22;4164;49.844;8.830;2022-12-18T06:51:19;-10.60;99.90
8248;DHT22;4164;49.844;8.830;2022-12-18T06:53:45;-10.60;99.90
8248;DHT22;4164;49.844;8.830;2022-12-18T06:56:11;-10.50;99.90
8248;DHT22;4164;49.844;8.830;2022-12-18T06:58:38;-10.50;99.90
8248;DHT22;4164;49.844;8.830;2022-12-18T07:01:05;-10.50;99.90
8248;DHT22;4164;49.844;8.830;2022-12-18T07:03:34;-10.50;99.90
8248;DHT22;4164;49.844;8.830;2022-12-18T07:06:00;-10.50;99.90
8248;DHT22;4164;49.844;8.830;2022-12-18T07:08:25;-10.40;99.90
8248;DHT22;4164;49.844;8.830;2022-12-18T07:10:51;-10.40;99.90
8248;DHT22;4164;49.844;8.830;2022-12-18T07:13:18;-10.40;99.90
8248;DHT22;4164;49.844;8.830;2022-12-18T07:15:43;-10.20;99.90
8248;DHT22;4164;49.844;8.830;2022-12-18T07:18:09;-10.20;99.90
8248;DHT22;4164;49.844;8.830;2022-12-18T07:20:35;-10.20;99.90
8248;DHT22;4164;49.844;8.830;2022-12-18T07:23:04;-10.10;99.90
8248;DHT22;4164;49.844;8.830;2022-12-18T07:25:36;-10.00;99.90
8248;DHT22;4164;49.844;8.830;2022-12-18T07:28:03;-10.00;99.90
8248;DHT22;4164;49.844;8.830;2022-12-18T07:30:29;-9.90;99.90
8248;DHT22;4164;49.844;8.830;2022-12-18T07:32:54;-9.90;99.90
8248;DHT22;4164;49.844;8.830;2022-12-18T07:35:20;-9.90;99.90
8248;DHT22;4164;49.844;8.830;2022-12-18T07:37:45;-9.90;99.90
8248;DHT22;4164;49.844;8.830;2022-12-18T07:40:11;-9.80;99.90
8248;DHT22;4164;49.844;8.830;2022-12-18T07:42:37;-9.70;99.90
8248;DHT22;4164;49.844;8.830;2022-12-18T07:45:03;-9.80;99.90
8248;DHT22;4164;49.844;8.830;2022-12-18T07:47:34;-9.70;99.90
8248;DHT22;4164;49.844;8.830;2022-12-18T07:50:00;-9.60;99.90
8248;DHT22;4164;49.844;8.830;2022-12-18T07:52:25;-9.60;99.90
8248;DHT22;4164;49.844;8.830;2022-12-18T07:54:51;-9.80;99.90
8248;DHT22;4164;49.844;8.830;2022-12-18T07:57:17;-9.70;99.90
8248;DHT22;4164;49.844;8.830;2022-12-18T07:59:45;-9.60;99.90
8248;DHT22;4164;49.844;8.830;2022-12-18T08:02:11;-9.40;99.90
8248;DHT22;4164;49.844;8.830;2022-12-18T08:04:36;-9.40;99.90
8248;DHT22;4164;49.844;8.830;2022-12-18T08:07:02;-9.50;99.90
8248;DHT22;4164;49.844;8.830;2022-12-18T08:09:28;-9.40;99.90
8248;DHT22;4164;49.844;8.830;2022-12-18T08:11:53;-9.60;99.90
8248;DHT22;4164;49.844;8.830;2022-12-18T08:14:19;-9.60;99.90
8248;DHT22;4164;49.844;8.830;2022-12-18T08:16:45;-9.60;99.90
8248;DHT22;4164;49.844;8.830;2022-12-18T08:19:10;-9.50;99.90
8248;DHT22;4164;49.844;8.830;2022-12-18T08:21:36;-9.40;99.90
8248;DHT22;4164;49.844;8.830;2022-12-18T08:24:02;-9.00;99.90
8248;DHT22;4164;49.844;8.830;2022-12-18T08:26:30;-9.00;99.90
8248;DHT22;4164;49.844;8.830;2022-12-18T08:28:57;-9.00;99.90
8248;DHT22;4164;49.844;8.830;2022-12-18T08:31:24;-9.00;99.90
8248;DHT22;4164;49.844;8.830;2022-12-18T08:33:50;-8.80;99.90
8248;DHT22;4164;49.844;8.830;2022-12-18T08:36:17;-8.70;99.90
8248;DHT22;4164;49.844;8.830;2022-12-18T08:38:43;-8.70;99.90
8248;DHT22;4164;49.844;8.830;2022-12-18T08:41:10;-8.70;99.90
8248;DHT22;4164;49.844;8.830;2022-12-18T08:43:36;-8.60;99.90
8248;DHT22;4164;49.844;8.830;2022-12-18T08:46:22;-8.50;99.90
8248;DHT22;4164;49.844;8.830;2022-12-18T08:48:49;-8.50;99.90
8248;DHT22;4164;49.844;8.830;2022-12-18T08:51:16;-8.30;99.90
8248;DHT22;4164;49.844;8.830;2022-12-18T08:53:43;-8.20;99.90
8248;DHT22;4164;49.844;8.830;2022-12-18T08:56:09;-8.10;99.90
8248;DHT22;4164;49.844;8.830;2022-12-18T08:58:35;-8.10;99.90
8248;DHT22;4164;49.844;8.830;2022-12-18T09:01:08;-7.80;99.90
8248;DHT22;4164;49.844;8.830;2022-12-18T09:03:34;-7.60;99.90
8248;DHT22;4164;49.844;8.830;2022-12-18T09:06:01;-7.50;99.90
8248;DHT22;4164;49.844;8.830;2022-12-18T09:08:27;-7.10;99.90
8248;DHT22;4164;49.844;8.830;2022-12-18T09:10:53;-6.60;99.90
8248;DHT22;4164;49.844;8.830;2022-12-18T09:13:18;-5.10;99.90
8248;DHT22;4164;49.844;8.830;2022-12-18T09:15:49;-4.10;99.90
8248;DHT22;4164;49.844;8.830;2022-12-18T09:18:16;-3.10;99.90
8248;DHT22;4164;49.844;8.830;2022-12-18T09:20:42;-2.10;99.90
8248;DHT22;4164;49.844;8.830;2022-12-18T09:23:09;-1.50;99.90
8248;DHT22;4164;49.844;8.830;2022-12-18T09:25:35;-1.00;99.90
8248;DHT22;4164;49.844;8.830;2022-12-18T09:28:15;-0.50;99.90
8248;DHT22;4164;49.844;8.830;2022-12-18T09:30:47;0.50;99.90
8248;DHT22;4164;49.844;8.830;2022-12-18T09:33:13;1.20;99.90
8248;DHT22;4164;49.844;8.830;2022-12-18T09:35:40;1.50;99.90
8248;DHT22;4164;49.844;8.830;2022-12-18T09:38:07;0.50;99.90
8248;DHT22;4164;49.844;8.830;2022-12-18T09:40:40;-0.80;99.90
8248;DHT22;4164;49.844;8.830;2022-12-18T09:43:09;-1.70;99.90
8248;DHT22;4164;49.844;8.830;2022-12-18T09:45:42;-2.10;99.90
8248;DHT22;4164;49.844;8.830;2022-12-18T09:48:34;-2.20;99.90
8248;DHT22;4164;49.844;8.830;2022-12-18T09:51:11;-2.30;99.90
8248;DHT22;4164;49.844;8.830;2022-12-18T09:53:41;-3.00;99.90
8248;DHT22;4164;49.844;8.830;2022-12-18T09:56:15;-2.80;99.90
8248;DHT22;4164;49.844;8.830;2022-12-18T09:58:57;-2.60;99.90
8248;DHT22;4164;49.844;8.830;2022-12-18T10:01:24;-2.70;99.90
8248;DHT22;4164;49.844;8.830;2022-12-18T10:03:50;-2.40;99.90
8248;DHT22;4164;49.844;8.830;2022-12-18T10:06:28;-3.00;99.90
8248;DHT22;4164;49.844;8.830;2022-12-18T10:09:28;-3.10;99.90
8248;DHT22;4164;49.844;8.830;2022-12-18T10:12:09;-2.50;99.90
8248;DHT22;4164;49.844;8.830;2022-12-18T10:17:34;-0.90;99.90
8248;DHT22;4164;49.844;8.830;2022-12-18T10:22:47;0.40;99.90
8248;DHT22;4164;49.844;8.830;2022-12-18T10:25:38;1.50;99.90
8248;DHT22;4164;49.844;8.830;2022-12-18T10:28:14;2.00;99.90
8248;DHT22;4164;49.844;8.830;2022-12-18T10:30:41;2.00;99.90
8248;DHT22;4164;49.844;8.830;2022-12-18T10:33:21;2.00;99.90
8248;DHT22;4164;49.844;8.830;2022-12-18T10:35:50;2.10;99.70
8248;DHT22;4164;49.844;8.830;2022-12-18T10:43:47;1.10;99.90
8248;DHT22;4164;49.844;8.830;2022-12-18T10:46:19;1.00;99.90
8248;DHT22;4164;49.844;8.830;2022-12-18T10:48:52;0.60;99.90
8248;DHT22;4164;49.844;8.830;2022-12-18T10:51:29;0.00;99.90
8248;DHT22;4164;49.844;8.830;2022-12-18T10:54:21;-0.30;99.90
8248;DHT22;4164;49.844;8.830;2022-12-18T10:56:45;-0.30;99.90
8248;DHT22;4164;49.844;8.830;2022-12-18T10:59:14;0.00;99.90
8248;DHT22;4164;49.844;8.830;2022-12-18T11:01:58;-0.50;99.90
8248;DHT22;4164;49.844;8.830;2022-12-18T11:04:29;0.00;99.90
8248;DHT22;4164;49.844;8.830;2022-12-18T11:07:03;-0.30;99.90
8248;DHT22;4164;49.844;8.830;2022-12-18T11:09:30;-0.60;99.90
8248;DHT22;4164;49.844;8.830;2022-12-18T11:11:59;-0.40;99.90
8248;DHT22;4164;49.844;8.830;2022-12-18T11:14:27;-0.10;99.90
8248;DHT22;4164;49.844;8.830;2022-12-18T11:16:54;0.10;99.90
8248;DHT22;4164;49.844;8.830;2022-12-18T11:19:32;-0.10;99.90
8248;DHT22;4164;49.844;8.830;2022-12-18T11:21:59;0.60;99.90
8248;DHT22;4164;49.844;8.830;2022-12-18T11:24:32;1.40;99.90
8248;DHT22;4164;49.844;8.830;2022-12-18T11:27:20;2.10;99.90
8248;DHT22;4164;49.844;8.830;2022-12-18T11:29:45;1.70;99.90
8248;DHT22;4164;49.844;8.830;2022-12-18T11:32:34;1.60;99.90
8248;DHT22;4164;49.844;8.830;2022-12-18T11:38:12;1.70;99.90
8248;DHT22;4164;49.844;8.830;2022-12-18T11:40:42;1.20;99.90
8248;DHT22;4164;49.844;8.830;2022-12-18T11:43:16;0.90;99.90
8248;DHT22;4164;49.844;8.830;2022-12-18T11:45:53;0.70;99.90
8248;DHT22;4164;49.844;8.830;2022-12-18T11:48:54;0.50;99.90
8248;DHT22;4164;49.844;8.830;2022-12-18T11:51:33;0.70;99.90
8248;DHT22;4164;49.844;8.830;2022-12-18T11:54:01;1.10;99.90
8248;DHT22;4164;49.844;8.830;2022-12-18T11:56:35;0.20;99.90
8248;DHT22;4164;49.844;8.830;2022-12-18T12:01:50;0.70;99.90
8248;DHT22;4164;49.844;8.830;2022-12-18T12:04:52;0.40;99.90
8248;DHT22;4164;49.844;8.830;2022-12-18T12:18:43;-0.70;99.90
8248;DHT22;4164;49.844;8.830;2022-12-18T12:21:39;-0.40;99.90
8248;DHT22;4164;49.844;8.830;2022-12-18T12:24:35;-0.30;99.90
8248;DHT22;4164;49.844;8.830;2022-12-18T12:27:13;-0.10;99.90
8248;DHT22;4164;49.844;8.830;2022-12-18T12:35:37;-1.60;99.90
8248;DHT22;4164;49.844;8.830;2022-12-18T12:38:25;-1.50;99.90
8248;DHT22;4164;49.844;8.830;2022-12-18T12:40:58;-1.40;99.90
8248;DHT22;4164;49.844;8.830;2022-12-18T12:46:05;-1.20;99.90
8248;DHT22;4164;49.844;8.830;2022-12-18T12:48:46;-1.30;99.90
8248;DHT22;4164;49.844;8.830;2022-12-18T12:51:17;-1.20;99.90
8248;DHT22;4164;49.844;8.830;2022-12-18T12:53:45;-1.20;99.90
8248;DHT22;4164;49.844;8.830;2022-12-18T12:56:13;-1.40;99.90
8248;DHT22;4164;49.844;8.830;2022-12-18T12:58:52;-1.50;99.90
8248;DHT22;4164;49.844;8.830;2022-12-18T13:04:36;-1.80;99.90
8248;DHT22;4164;49.844;8.830;2022-12-18T13:07:15;-1.70;99.90
8248;DHT22;4164;49.844;8.830;2022-12-18T13:13:07;-2.10;99.90
8248;DHT22;4164;49.844;8.830;2022-12-18T13:15:45;-2.30;99.90
8248;DHT22;4164;49.844;8.830;2022-12-18T13:18:20;-2.30;99.90
8248;DHT22;4164;49.844;8.830;2022-12-18T13:20:50;-2.30;99.90
8248;DHT22;4164;49.844;8.830;2022-12-18T13:23:29;-2.20;99.90
8248;DHT22;4164;49.844;8.830;2022-12-18T13:34:19;-2.20;99.90
8248;DHT22;4164;49.844;8.830;2022-12-18T13:36:45;-2.10;99.90
8248;DHT22;4164;49.844;8.830;2022-12-18T13:39:21;-1.90;99.90
8248;DHT22;4164;49.844;8.830;2022-12-18T13:44:38;-1.80;99.90
8248;DHT22;4164;49.844;8.830;2022-12-18T13:47:28;-1.70;99.90
8248;DHT22;4164;49.844;8.830;2022-12-18T13:49:56;-2.00;99.90
8248;DHT22;4164;49.844;8.830;2022-12-18T13:52:25;-1.90;99.90
8248;DHT22;4164;49.844;8.830;2022-12-18T13:54:53;-2.20;99.90
8248;DHT22;4164;49.844;8.830;2022-12-18T13:57:38;-2.20;99.90
8248;DHT22;4164;49.844;8.830;2022-12-18T14:02:51;-2.50;99.90
8248;DHT22;4164;49.844;8.830;2022-12-18T14:05:25;-2.50;99.90
8248;DHT22;4164;49.844;8.830;2022-12-18T14:07:52;-2.60;99.90
8248;DHT22;4164;49.844;8.830;2022-12-18T14:10:21;-2.70;99.90
8248;DHT22;4164;49.844;8.830;2022-12-18T14:12:48;-2.60;99.90
8248;DHT22;4164;49.844;8.830;2022-12-18T14:17:54;-2.70;99.90
8248;DHT22;4164;49.844;8.830;2022-12-18T14:20:21;-2.80;99.90
8248;DHT22;4164;49.844;8.830;2022-12-18T14:22:48;-2.90;99.90
8248;DHT22;4164;49.844;8.830;2022-12-18T14:25:15;-2.90;99.90
8248;DHT22;4164;49.844;8.830;2022-12-18T14:27:48;-2.90;99.90
8248;DHT22;4164;49.844;8.830;2022-12-18T14:33:10;-2.80;99.90
8248;DHT22;4164;49.844;8.830;2022-12-18T14:35:38;-2.80;99.90
8248;DHT22;4164;49.844;8.830;2022-12-18T14:38:30;-2.70;99.90
8248;DHT22;4164;49.844;8.830;2022-12-18T14:40:58;-2.80;99.90
8248;DHT22;4164;49.844;8.830;2022-12-18T14:43:28;-2.80;99.90
8248;DHT22;4164;49.844;8.830;2022-12-18T14:45:55;-2.70;99.90
8248;DHT22;4164;49.844;8.830;2022-12-18T14:51:14;-2.70;99.90
8248;DHT22;4164;49.844;8.830;2022-12-18T14:53:56;-2.80;99.90
8248;DHT22;4164;49.844;8.830;2022-12-18T14:59:12;-2.90;99.90
8248;DHT22;4164;49.844;8.830;2022-12-18T15:02:01;-2.90;99.90
8248;DHT22;4164;49.844;8.830;2022-12-18T15:04:32;-2.90;99.90
8248;DHT22;4164;49.844;8.830;2022-12-18T15:07:20;-2.90;99.90
8248;DHT22;4164;49.844;8.830;2022-12-18T15:10:04;-2.90;99.90
8248;DHT22;4164;49.844;8.830;2022-12-18T15:12:37;-3.00;99.90
8248;DHT22;4164;49.844;8.830;2022-12-18T15:15:05;-2.90;99.90
8248;DHT22;4164;49.844;8.830;2022-12-18T15:17:31;-2.90;99.90
8248;DHT22;4164;49.844;8.830;2022-12-18T15:20:09;-3.00;99.90
8248;DHT22;4164;49.844;8.830;2022-12-18T15:22:36;-2.90;99.90
8248;DHT22;4164;49.844;8.830;2022-12-18T15:25:19;-2.90;99.90
8248;DHT22;4164;49.844;8.830;2022-12-18T15:27:48;-2.90;99.90
8248;DHT22;4164;49.844;8.830;2022-12-18T15:30:19;-3.00;99.90
8248;DHT22;4164;49.844;8.830;2022-12-18T15:32:46;-3.00;99.90
8248;DHT22;4164;49.844;8.830;2022-12-18T15:37:43;-3.10;99.90
8248;DHT22;4164;49.844;8.830;2022-12-18T15:40:25;-3.10;99.90
8248;DHT22;4164;49.844;8.830;2022-12-18T15:42:53;-3.10;99.90
8248;DHT22;4164;49.844;8.830;2022-12-18T15:45:38;-3.00;99.90
8248;DHT22;4164;49.844;8.830;2022-12-18T15:48:19;-2.90;99.90
8248;DHT22;4164;49.844;8.830;2022-12-18T15:50:45;-2.80;99.90
8248;DHT22;4164;49.844;8.830;2022-12-18T15:53:11;-2.80;99.90
8248;DHT22;4164;49.844;8.830;2022-12-18T15:55:37;-2.70;99.90
8248;DHT22;4164;49.844;8.830;2022-12-18T15:58:21;-2.70;99.90
8248;DHT22;4164;49.844;8.830;2022-12-18T16:00:47;-3.00;99.90
8248;DHT22;4164;49.844;8.830;2022-12-18T16:03:13;-3.20;99.90
8248;DHT22;4164;49.844;8.830;2022-12-18T16:05:38;-3.30;99.90
8248;DHT22;4164;49.844;8.830;2022-12-18T16:08:04;-3.20;99.90
8248;DHT22;4164;49.844;8.830;2022-12-18T16:10:29;-3.30;99.90
8248;DHT22;4164;49.844;8.830;2022-12-18T16:12:55;-3.30;99.90
8248;DHT22;4164;49.844;8.830;2022-12-18T16:15:20;-3.20;99.90
8248;DHT22;4164;49.844;8.830;2022-12-18T16:17:46;-3.10;99.90
8248;DHT22;4164;49.844;8.830;2022-12-18T16:20:14;-3.10;99.90
8248;DHT22;4164;49.844;8.830;2022-12-18T16:22:41;-3.00;99.90
8248;DHT22;4164;49.844;8.830;2022-12-18T16:25:17;-2.90;99.90
8248;DHT22;4164;49.844;8.830;2022-12-18T16:27:43;-2.90;99.90
8248;DHT22;4164;49.844;8.830;2022-12-18T16:30:13;-2.90;99.90
8248;DHT22;4164;49.844;8.830;2022-12-18T16:32:39;-2.90;99.90
8248;DHT22;4164;49.844;8.830;2022-12-18T16:35:05;-3.00;99.90
8248;DHT22;4164;49.844;8.830;2022-12-18T16:37:31;-2.90;99.90
8248;DHT22;4164;49.844;8.830;2022-12-18T16:39:56;-2.90;99.90
8248;DHT22;4164;49.844;8.830;2022-12-18T16:42:22;-2.80;99.90
8248;DHT22;4164;49.844;8.830;2022-12-18T16:44:48;-2.80;99.90
8248;DHT22;4164;49.844;8.830;2022-12-18T16:47:15;-2.80;99.90
8248;DHT22;4164;49.844;8.830;2022-12-18T16:49:40;-2.80;99.90
8248;DHT22;4164;49.844;8.830;2022-12-18T16:52:07;-2.70;99.90
8248;DHT22;4164;49.844;8.830;2022-12-18T16:54:33;-2.60;99.90
8248;DHT22;4164;49.844;8.830;2022-12-18T16:57:01;-2.60;99.90
8248;DHT22;4164;49.844;8.830;2022-12-18T16:59:26;-2.60;99.90
8248;DHT22;4164;49.844;8.830;2022-12-18T17:01:52;-2.80;99.90
8248;DHT22;4164;49.844;8.830;2022-12-18T17:04:18;-2.70;99.90
8248;DHT22;4164;49.844;8.830;2022-12-18T17:06:45;-2.60;99.90
8248;DHT22;4164;49.844;8.830;2022-12-18T17:09:16;-2.60;99.90
8248;DHT22;4164;49.844;8.830;2022-12-18T17:11:42;-2.70;99.90
8248;DHT22;4164;49.844;8.830;2022-12-18T17:14:13;-2.60;99.90
8248;DHT22;4164;49.844;8.830;2022-12-18T17:16:39;-2.60;99.90
8248;DHT22;4164;49.844;8.830;2022-12-18T17:19:05;-2.70;99.90
8248;DHT22;4164;49.844;8.830;2022-12-18T17:21:30;-2.60;99.90
8248;DHT22;4164;49.844;8.830;2022-12-18T17:23:59;-2.60;99.90
8248;DHT22;4164;49.844;8.830;2022-12-18T17:26:25;-2.60;99.90
8248;DHT22;4164;49.844;8.830;2022-12-18T17:28:50;-2.50;99.90
8248;DHT22;4164;49.844;8.830;2022-12-18T17:31:20;-2.50;99.90
8248;DHT22;4164;49.844;8.830;2022-12-18T17:33:47;-2.50;99.90
8248;DHT22;4164;49.844;8.830;2022-12-18T17:36:12;-2.50;99.90
8248;DHT22;4164;49.844;8.830;2022-12-18T17:38:38;-2.50;99.90
8248;DHT22;4164;49.844;8.830;2022-12-18T17:41:06;-2.50;99.90
8248;DHT22;4164;49.844;8.830;2022-12-18T17:43:32;-2.50;99.90